PWSweather.com
Personal Weather Stations
Station Observations
BC052CD
On, Kemptville, ON K0G 1J0

OnKemptville, ON K0G 1J0

Lat: 45.0173179, Lon: -75.6329355

Elevation: 295

Station Type: National Geographic 265NC

http://kerrentweather.ca

High Low Average
Temperature 64.9°F18.3°C 46.6°F8.1°C 58.4°F14.7°C
Dew Point 62.3°F16.8°C 46.6°F8.1°C 56.6°F13.7°C
Winds 5.3 mph 8.5 kmh Calm Calm 2.0 mph S3.2 kmh S
Wind Gusts 15.1 mph24.3 kmh -- 7.0 mph11.3 kmh
Humidity 100% 66% 94%
Pressure 30.18 in1022.0 mb 29.80 in1009.1 mb -
Precipitation 0.62 in15.7 mm - -
Hour Temp Dew Point Humidity Winds Wind Gusts Pressure Precip Precip Rate Daily Precip Total
12:00 AM 50.0°F10.0°C 50.0°F10.0°C 100% 0.5 mph SW0.8 kmh SW 2.0 mph3.2 kmh 30.17 in1021.7 mb 0.00 in0.0 mm 0.00 in0.0 mm 0.00 in0.0 mm
12:15 AM 49.5°F9.7°C 49.5°F9.7°C 100% Calm Calm -- 30.17 in1021.7 mb 0.00 in0.0 mm 0.00 in0.0 mm 0.00 in0.0 mm
12:30 AM 49.1°F9.5°C 49.1°F9.5°C 100% Calm Calm 0.8 mph1.3 kmh 30.17 in1021.7 mb 0.00 in0.0 mm 0.00 in0.0 mm 0.00 in0.0 mm
12:45 AM 49.1°F9.5°C 49.1°F9.5°C 100% Calm Calm 2.0 mph3.2 kmh 30.17 in1021.7 mb 0.00 in0.0 mm 0.00 in0.0 mm 0.00 in0.0 mm
01:00 AM 49.1°F9.5°C 49.1°F9.5°C 100% Calm Calm 2.0 mph3.2 kmh 30.17 in1021.7 mb 0.00 in0.0 mm 0.00 in0.0 mm 0.00 in0.0 mm
01:15 AM 49.1°F9.5°C 49.1°F9.5°C 100% Calm Calm 2.0 mph3.2 kmh 30.17 in1021.7 mb 0.00 in0.0 mm 0.00 in0.0 mm 0.00 in0.0 mm
01:30 AM 49.5°F9.7°C 49.5°F9.7°C 100% 0.5 mph SW0.8 kmh SW 3.9 mph6.3 kmh 30.18 in1022.0 mb 0.00 in0.0 mm 0.00 in0.0 mm 0.00 in0.0 mm
01:45 AM 49.5°F9.7°C 49.5°F9.7°C 100% 0.1 mph SW0.2 kmh SW 2.0 mph3.2 kmh 30.17 in1021.7 mb 0.00 in0.0 mm 0.00 in0.0 mm 0.00 in0.0 mm
02:00 AM 50.0°F10.0°C 50.0°F10.0°C 100% 0.7 mph SW1.1 kmh SW 4.8 mph7.7 kmh 30.18 in1022.0 mb 0.00 in0.0 mm 0.00 in0.0 mm 0.00 in0.0 mm
02:15 AM 50.5°F10.3°C 50.5°F10.3°C 100% 0.2 mph SW0.3 kmh SW 2.8 mph4.5 kmh 30.17 in1021.7 mb 0.00 in0.0 mm 0.00 in0.0 mm 0.00 in0.0 mm
02:30 AM 50.9°F10.5°C 50.9°F10.5°C 100% 0.4 mph SSW0.6 kmh SSW 3.9 mph6.3 kmh 30.17 in1021.7 mb 0.00 in0.0 mm 0.00 in0.0 mm 0.00 in0.0 mm
02:45 AM 51.1°F10.6°C 51.1°F10.6°C 100% Calm Calm 2.0 mph3.2 kmh 30.17 in1021.7 mb 0.00 in0.0 mm 0.00 in0.0 mm 0.00 in0.0 mm
03:00 AM 50.7°F10.4°C 50.7°F10.4°C 100% Calm Calm -- 30.17 in1021.7 mb 0.00 in0.0 mm 0.00 in0.0 mm 0.00 in0.0 mm
03:15 AM 50.5°F10.3°C 50.5°F10.3°C 100% Calm Calm 2.0 mph3.2 kmh 30.17 in1021.7 mb 0.00 in0.0 mm 0.00 in0.0 mm 0.00 in0.0 mm
03:30 AM 50.4°F10.2°C 50.4°F10.2°C 100% Calm Calm 2.0 mph3.2 kmh 30.17 in1021.7 mb 0.00 in0.0 mm 0.00 in0.0 mm 0.00 in0.0 mm
03:45 AM 50.4°F10.2°C 50.4°F10.2°C 100% Calm Calm 2.0 mph3.2 kmh 30.17 in1021.7 mb 0.00 in0.0 mm 0.00 in0.0 mm 0.00 in0.0 mm
04:00 AM 50.2°F10.1°C 50.2°F10.1°C 100% Calm Calm 0.8 mph1.3 kmh 30.17 in1021.7 mb 0.00 in0.0 mm 0.00 in0.0 mm 0.00 in0.0 mm
04:15 AM 50.0°F10.0°C 50.0°F10.0°C 100% 0.1 mph SW0.2 kmh SW 2.0 mph3.2 kmh 30.17 in1021.7 mb 0.00 in0.0 mm 0.00 in0.0 mm 0.00 in0.0 mm
04:30 AM 49.8°F9.9°C 49.8°F9.9°C 100% 0.1 mph WSW0.2 kmh WSW 3.9 mph6.3 kmh 30.17 in1021.7 mb 0.00 in0.0 mm 0.00 in0.0 mm 0.00 in0.0 mm
04:45 AM 49.1°F9.5°C 49.1°F9.5°C 100% 0.3 mph SW0.5 kmh SW 2.0 mph3.2 kmh 30.17 in1021.7 mb 0.00 in0.0 mm 0.00 in0.0 mm 0.00 in0.0 mm
05:00 AM 48.6°F9.2°C 48.6°F9.2°C 100% 0.7 mph SW1.1 kmh SW 3.9 mph6.3 kmh 30.16 in1021.3 mb 0.00 in0.0 mm 0.00 in0.0 mm 0.00 in0.0 mm
05:15 AM 48.4°F9.1°C 48.4°F9.1°C 100% 1.0 mph SW1.6 kmh SW 4.8 mph7.7 kmh 30.16 in1021.3 mb 0.00 in0.0 mm 0.00 in0.0 mm 0.00 in0.0 mm
05:30 AM 46.6°F8.1°C 46.6°F8.1°C 100% 0.7 mph SW1.1 kmh SW 3.9 mph6.3 kmh 30.17 in1021.7 mb 0.00 in0.0 mm 0.00 in0.0 mm 0.00 in0.0 mm
05:45 AM 47.8°F8.8°C 47.8°F8.8°C 100% 0.5 mph SW0.8 kmh SW 4.8 mph7.7 kmh 30.18 in1022.0 mb 0.00 in0.0 mm 0.00 in0.0 mm 0.00 in0.0 mm
06:00 AM 48.0°F8.9°C 48.0°F8.9°C 100% 0.2 mph SW0.3 kmh SW 2.8 mph4.5 kmh 30.18 in1022.0 mb 0.00 in0.0 mm 0.00 in0.0 mm 0.00 in0.0 mm
06:15 AM 48.4°F9.1°C 48.4°F9.1°C 100% 0.8 mph SW1.3 kmh SW 3.9 mph6.3 kmh 30.17 in1021.7 mb 0.00 in0.0 mm 0.00 in0.0 mm 0.00 in0.0 mm
06:30 AM 49.1°F9.5°C 49.1°F9.5°C 100% 0.7 mph SW1.1 kmh SW 3.9 mph6.3 kmh 30.17 in1021.7 mb 0.00 in0.0 mm 0.00 in0.0 mm 0.00 in0.0 mm
06:45 AM 49.5°F9.7°C 49.5°F9.7°C 100% 0.7 mph SW1.1 kmh SW 3.9 mph6.3 kmh 30.17 in1021.7 mb 0.00 in0.0 mm 0.00 in0.0 mm 0.00 in0.0 mm
07:00 AM 50.7°F10.4°C 50.7°F10.4°C 100% 1.0 mph S1.6 kmh S 4.8 mph7.7 kmh 30.16 in1021.3 mb 0.00 in0.0 mm 0.00 in0.0 mm 0.00 in0.0 mm
07:15 AM 52.2°F11.2°C 52.2°F11.2°C 100% 1.1 mph S1.8 kmh S 4.8 mph7.7 kmh 30.16 in1021.3 mb 0.00 in0.0 mm 0.00 in0.0 mm 0.00 in0.0 mm
07:30 AM 53.4°F11.9°C 53.4°F11.9°C 100% 1.7 mph SSW2.7 kmh SSW 6.7 mph10.8 kmh 30.15 in1021.0 mb 0.00 in0.0 mm 0.00 in0.0 mm 0.00 in0.0 mm
07:45 AM 55.0°F12.8°C 55.0°F12.8°C 100% 2.0 mph SW3.2 kmh SW 6.7 mph10.8 kmh 30.14 in1020.7 mb 0.00 in0.0 mm 0.00 in0.0 mm 0.00 in0.0 mm
08:00 AM 57.4°F14.1°C 57.4°F14.1°C 100% 2.4 mph SW3.9 kmh SW 8.7 mph14.0 kmh 30.13 in1020.3 mb 0.00 in0.0 mm 0.00 in0.0 mm 0.00 in0.0 mm
08:15 AM 59.7°F15.4°C 59.7°F15.4°C 100% 3.1 mph S5.0 kmh S 7.5 mph12.1 kmh 30.15 in1021.0 mb 0.00 in0.0 mm 0.00 in0.0 mm 0.00 in0.0 mm
08:30 AM 62.2°F16.8°C 62.3°F16.8°C 100% 3.3 mph SSW5.3 kmh SSW 9.5 mph15.3 kmh 30.14 in1020.7 mb 0.00 in0.0 mm 0.00 in0.0 mm 0.00 in0.0 mm
08:45 AM 63.3°F17.4°C 62.2°F16.8°C 96% 3.1 mph SW5.0 kmh SW 9.5 mph15.3 kmh 30.13 in1020.3 mb 0.00 in0.0 mm 0.00 in0.0 mm 0.00 in0.0 mm
09:00 AM 63.5°F17.5°C 59.9°F15.5°C 88% 4.1 mph SW6.6 kmh SW 11.5 mph18.5 kmh 30.14 in1020.7 mb 0.00 in0.0 mm 0.00 in0.0 mm 0.00 in0.0 mm
09:15 AM 63.9°F17.7°C 59.0°F15.0°C 84% 3.2 mph SSW5.1 kmh SSW 10.3 mph16.6 kmh 30.14 in1020.7 mb 0.00 in0.0 mm 0.00 in0.0 mm 0.00 in0.0 mm
09:30 AM 63.9°F17.7°C 56.9°F13.8°C 78% 5.3 mph SW8.5 kmh SW 13.4 mph21.6 kmh 30.15 in1021.0 mb 0.00 in0.0 mm 0.00 in0.0 mm 0.00 in0.0 mm
09:45 AM 64.0°F17.8°C 56.3°F13.5°C 76% 4.1 mph SW6.6 kmh SW 12.3 mph19.8 kmh 30.13 in1020.3 mb 0.00 in0.0 mm 0.00 in0.0 mm 0.00 in0.0 mm
10:00 AM 64.8°F18.2°C 55.9°F13.3°C 73% 3.9 mph SSW6.3 kmh SSW 11.5 mph18.5 kmh 30.12 in1020.0 mb 0.00 in0.0 mm 0.00 in0.0 mm 0.00 in0.0 mm
10:15 AM 64.4°F18.0°C 54.4°F12.4°C 70% 4.3 mph SSW6.9 kmh SSW 14.3 mph23.0 kmh 30.13 in1020.3 mb 0.00 in0.0 mm 0.00 in0.0 mm 0.00 in0.0 mm
10:30 AM 64.0°F17.8°C 53.7°F12.1°C 69% 2.9 mph S4.7 kmh S 11.5 mph18.5 kmh 30.12 in1020.0 mb 0.00 in0.0 mm 0.00 in0.0 mm 0.00 in0.0 mm
10:45 AM 64.2°F17.9°C 53.9°F12.2°C 69% 3.8 mph SSW6.1 kmh SSW 10.3 mph16.6 kmh 30.12 in1020.0 mb 0.00 in0.0 mm 0.00 in0.0 mm 0.00 in0.0 mm
11:00 AM 64.8°F18.2°C 53.6°F12.0°C 67% 3.4 mph SW5.5 kmh SW 14.3 mph23.0 kmh 30.11 in1019.6 mb 0.00 in0.0 mm 0.00 in0.0 mm 0.00 in0.0 mm
11:15 AM 64.6°F18.1°C 53.4°F11.9°C 67% 5.2 mph SW8.4 kmh SW 15.1 mph24.3 kmh 30.12 in1020.0 mb 0.00 in0.0 mm 0.00 in0.0 mm 0.00 in0.0 mm
11:30 AM 64.4°F18.0°C 52.8°F11.6°C 66% 3.3 mph SW5.3 kmh SW 15.1 mph24.3 kmh 30.11 in1019.6 mb 0.00 in0.0 mm 0.00 in0.0 mm 0.00 in0.0 mm
11:45 AM 64.0°F17.8°C 52.9°F11.6°C 67% 3.1 mph WSW5.0 kmh WSW 15.1 mph24.3 kmh 30.11 in1019.6 mb 0.00 in0.0 mm 0.00 in0.0 mm 0.00 in0.0 mm
12:00 PM 63.9°F17.7°C 52.7°F11.5°C 67% 3.0 mph SW4.8 kmh SW 8.7 mph14.0 kmh 30.12 in1020.0 mb 0.00 in0.0 mm 0.00 in0.0 mm 0.00 in0.0 mm
12:15 PM 63.7°F17.6°C 53.3°F11.8°C 69% 3.1 mph WSW5.0 kmh WSW 11.5 mph18.5 kmh 30.11 in1019.6 mb 0.00 in0.0 mm 0.00 in0.0 mm 0.00 in0.0 mm
12:30 PM 63.3°F17.4°C 52.2°F11.2°C 67% 2.2 mph WSW3.5 kmh WSW 8.7 mph14.0 kmh 30.11 in1019.6 mb 0.00 in0.0 mm 0.00 in0.0 mm 0.00 in0.0 mm
12:45 PM 64.9°F18.3°C 55.7°F13.2°C 72% 0.9 mph WSW1.4 kmh WSW 3.9 mph6.3 kmh 30.10 in1019.3 mb 0.00 in0.0 mm 0.00 in0.0 mm 0.00 in0.0 mm
01:00 PM 62.1°F16.7°C 54.4°F12.4°C 76% 0.7 mph SW1.1 kmh SW 3.9 mph6.3 kmh 30.09 in1019.0 mb 0.01 in0.3 mm 0.01 in0.3 mm 0.01 in0.3 mm
01:15 PM 61.2°F16.2°C 55.3°F12.9°C 81% 2.0 mph SE3.2 kmh SE 6.7 mph10.8 kmh 30.06 in1017.9 mb 0.08 in2.0 mm 0.28 in7.1 mm 0.08 in2.0 mm
01:30 PM 60.1°F15.6°C 56.2°F13.4°C 87% 2.5 mph SE4.0 kmh SE 8.7 mph14.0 kmh 30.05 in1017.6 mb 0.11 in2.8 mm 0.12 in3.0 mm 0.11 in2.8 mm
01:45 PM 59.5°F15.3°C 56.6°F13.7°C 90% 3.3 mph SSE5.3 kmh SSE 10.3 mph16.6 kmh 30.02 in1016.6 mb 0.11 in2.8 mm 0.00 in0.0 mm 0.11 in2.8 mm
02:00 PM 59.4°F15.2°C 57.6°F14.2°C 94% 2.6 mph S4.2 kmh S 7.5 mph12.1 kmh 30.01 in1016.3 mb 0.11 in2.8 mm 0.00 in0.0 mm 0.12 in3.0 mm
02:15 PM 59.4°F15.2°C 58.5°F14.7°C 97% 3.3 mph SSE5.3 kmh SSE 10.3 mph16.6 kmh 29.99 in1015.6 mb 0.04 in1.0 mm 0.00 in0.0 mm 0.12 in3.0 mm
02:30 PM 59.9°F15.5°C 59.6°F15.3°C 99% 3.6 mph S5.8 kmh S 12.3 mph19.8 kmh 29.98 in1015.2 mb 0.03 in0.8 mm 0.00 in0.0 mm 0.13 in3.3 mm
02:45 PM 60.8°F16.0°C 60.8°F16.0°C 100% 4.2 mph SSE6.8 kmh SSE 13.4 mph21.6 kmh 29.97 in1014.9 mb 0.01 in0.3 mm 0.00 in0.0 mm 0.13 in3.3 mm
03:00 PM 61.5°F16.4°C 61.5°F16.4°C 100% 4.5 mph SW7.2 kmh SW 10.3 mph16.6 kmh 29.98 in1015.2 mb 0.01 in0.3 mm 0.00 in0.0 mm 0.13 in3.3 mm
03:15 PM 62.2°F16.8°C 62.3°F16.8°C 100% 4.1 mph SW6.6 kmh SW 10.3 mph16.6 kmh 29.98 in1015.2 mb 0.01 in0.3 mm 0.00 in0.0 mm 0.13 in3.3 mm
03:30 PM 61.5°F16.4°C 61.5°F16.4°C 100% 4.6 mph SW7.4 kmh SW 13.4 mph21.6 kmh 29.96 in1014.6 mb 0.00 in0.0 mm 0.00 in0.0 mm 0.13 in3.3 mm
03:45 PM 61.9°F16.6°C 61.9°F16.6°C 100% 3.8 mph SW6.1 kmh SW 11.5 mph18.5 kmh 29.95 in1014.2 mb 0.00 in0.0 mm 0.00 in0.0 mm 0.13 in3.3 mm
04:00 PM 62.2°F16.8°C 62.3°F16.8°C 100% 4.1 mph SW6.6 kmh SW 10.3 mph16.6 kmh 29.95 in1014.2 mb 0.00 in0.0 mm 0.00 in0.0 mm 0.13 in3.3 mm
04:15 PM 62.2°F16.8°C 62.0°F16.7°C 99% 2.8 mph SW4.5 kmh SW 9.5 mph15.3 kmh 29.94 in1013.9 mb 0.00 in0.0 mm 0.00 in0.0 mm 0.13 in3.3 mm
04:30 PM 62.1°F16.7°C 62.1°F16.7°C 100% 1.6 mph SW2.6 kmh SW 8.7 mph14.0 kmh 29.93 in1013.5 mb 0.00 in0.0 mm 0.00 in0.0 mm 0.13 in3.3 mm
04:45 PM 61.7°F16.5°C 61.7°F16.5°C 100% 3.3 mph SW5.3 kmh SW 10.3 mph16.6 kmh 29.92 in1013.2 mb 0.03 in0.8 mm 0.12 in3.0 mm 0.16 in4.1 mm
05:00 PM 61.3°F16.3°C 61.4°F16.3°C 100% 2.6 mph SSW4.2 kmh SSW 9.5 mph15.3 kmh 29.89 in1012.2 mb 0.05 in1.3 mm 0.03 in0.8 mm 0.19 in4.8 mm
05:15 PM 61.3°F16.3°C 61.4°F16.3°C 100% 3.8 mph SSE6.1 kmh SSE 10.3 mph16.6 kmh 29.86 in1011.2 mb 0.07 in1.8 mm 0.08 in2.0 mm 0.20 in5.1 mm
05:30 PM 60.6°F15.9°C 60.6°F15.9°C 100% 3.2 mph SSW5.1 kmh SSW 13.4 mph21.6 kmh 29.87 in1011.5 mb 0.08 in2.0 mm 0.04 in1.0 mm 0.21 in5.3 mm
05:45 PM 60.6°F15.9°C 60.6°F15.9°C 100% 1.7 mph S2.7 kmh S 9.5 mph15.3 kmh 29.86 in1011.2 mb 0.05 in1.3 mm 0.00 in0.0 mm 0.21 in5.3 mm
06:00 PM 61.0°F16.1°C 61.0°F16.1°C 100% 1.1 mph SW1.8 kmh SW 5.6 mph9.0 kmh 29.87 in1011.5 mb 0.03 in0.8 mm 0.00 in0.0 mm 0.21 in5.3 mm
06:15 PM 61.2°F16.2°C 61.2°F16.2°C 100% 1.6 mph SW2.6 kmh SW 5.6 mph9.0 kmh 29.87 in1011.5 mb 0.01 in0.3 mm 0.00 in0.0 mm 0.21 in5.3 mm
06:30 PM 61.3°F16.3°C 61.4°F16.3°C 100% 0.7 mph SW1.1 kmh SW 5.6 mph9.0 kmh 29.86 in1011.2 mb 0.01 in0.3 mm 0.00 in0.0 mm 0.22 in5.6 mm
06:45 PM 61.5°F16.4°C 61.5°F16.4°C 100% 0.4 mph WSW0.6 kmh WSW 3.9 mph6.3 kmh 29.86 in1011.2 mb 0.01 in0.3 mm 0.00 in0.0 mm 0.22 in5.6 mm
07:00 PM 61.7°F16.5°C 61.7°F16.5°C 100% 0.4 mph SW0.6 kmh SW 2.8 mph4.5 kmh 29.85 in1010.8 mb 0.13 in3.3 mm 0.16 in4.1 mm 0.34 in8.6 mm
07:15 PM 61.5°F16.4°C 61.5°F16.4°C 100% 0.7 mph N1.1 kmh N 4.8 mph7.7 kmh 29.86 in1011.2 mb 0.21 in5.3 mm 0.32 in8.1 mm 0.42 in10.7 mm
07:30 PM 61.5°F16.4°C 61.5°F16.4°C 100% 1.3 mph SW2.1 kmh SW 4.8 mph7.7 kmh 29.85 in1010.8 mb 0.22 in5.6 mm 0.04 in1.0 mm 0.45 in11.4 mm
07:45 PM 61.5°F16.4°C 61.5°F16.4°C 100% 0.3 mph NNE0.5 kmh NNE 3.9 mph6.3 kmh 29.85 in1010.8 mb 0.22 in5.6 mm 0.00 in0.0 mm 0.45 in11.4 mm
08:00 PM 61.5°F16.4°C 61.5°F16.4°C 100% 0.4 mph NE0.6 kmh NE 2.8 mph4.5 kmh 29.85 in1010.8 mb 0.19 in4.8 mm 0.00 in0.0 mm 0.53 in13.5 mm
08:15 PM 61.5°F16.4°C 61.5°F16.4°C 100% 0.2 mph SSW0.3 kmh SSW 2.8 mph4.5 kmh 29.85 in1010.8 mb 0.11 in2.8 mm 0.00 in0.0 mm 0.53 in13.5 mm
08:30 PM 61.5°F16.4°C 61.5°F16.4°C 100% 0.3 mph ESE0.5 kmh ESE 2.8 mph4.5 kmh 29.84 in1010.5 mb 0.12 in3.0 mm 0.04 in1.0 mm 0.57 in14.5 mm
08:45 PM 61.2°F16.2°C 61.2°F16.2°C 100% 0.2 mph NNW0.3 kmh NNW 2.8 mph4.5 kmh 29.84 in1010.5 mb 0.16 in4.1 mm 0.16 in4.1 mm 0.61 in15.5 mm
09:00 PM 61.3°F16.3°C 61.4°F16.3°C 100% 0.1 mph NE0.2 kmh NE 2.0 mph3.2 kmh 29.83 in1010.2 mb 0.09 in2.3 mm 0.00 in0.0 mm 0.62 in15.7 mm
09:15 PM 61.3°F16.3°C 61.4°F16.3°C 100% 0.5 mph S0.8 kmh S 2.8 mph4.5 kmh 29.82 in1009.8 mb 0.09 in2.3 mm 0.00 in0.0 mm 0.62 in15.7 mm
09:30 PM 61.3°F16.3°C 61.4°F16.3°C 100% 0.6 mph S1.0 kmh S 3.9 mph6.3 kmh 29.81 in1009.5 mb 0.05 in1.3 mm 0.00 in0.0 mm 0.62 in15.7 mm
09:45 PM 61.3°F16.3°C 61.4°F16.3°C 100% 0.5 mph WSW0.8 kmh WSW 4.8 mph7.7 kmh 29.82 in1009.8 mb 0.01 in0.3 mm 0.00 in0.0 mm 0.62 in15.7 mm
10:00 PM 61.3°F16.3°C 61.4°F16.3°C 100% 1.6 mph SW2.6 kmh SW 5.6 mph9.0 kmh 29.80 in1009.1 mb 0.00 in0.0 mm 0.00 in0.0 mm 0.62 in15.7 mm
10:15 PM 61.3°F16.3°C 61.4°F16.3°C 100% 0.6 mph SW1.0 kmh SW 4.8 mph7.7 kmh 29.81 in1009.5 mb 0.00 in0.0 mm 0.00 in0.0 mm 0.62 in15.7 mm
10:30 PM 61.3°F16.3°C 61.4°F16.3°C 100% 0.1 mph SE0.2 kmh SE 2.0 mph3.2 kmh 29.81 in1009.5 mb 0.00 in0.0 mm 0.00 in0.0 mm 0.62 in15.7 mm
10:45 PM 61.5°F16.4°C 61.5°F16.4°C 100% 0.1 mph S0.2 kmh S 2.0 mph3.2 kmh 29.81 in1009.5 mb 0.00 in0.0 mm 0.00 in0.0 mm 0.62 in15.7 mm
11:00 PM 61.3°F16.3°C 61.4°F16.3°C 100% Calm Calm 2.0 mph3.2 kmh 29.82 in1009.8 mb 0.00 in0.0 mm 0.00 in0.0 mm 0.62 in15.7 mm
11:15 PM 61.3°F16.3°C 61.4°F16.3°C 100% 0.1 mph SW0.2 kmh SW 2.8 mph4.5 kmh 29.82 in1009.8 mb 0.00 in0.0 mm 0.00 in0.0 mm 0.62 in15.7 mm
11:30 PM 61.3°F16.3°C 61.4°F16.3°C 100% 0.8 mph WSW1.3 kmh WSW 4.8 mph7.7 kmh 29.82 in1009.8 mb 0.00 in0.0 mm 0.00 in0.0 mm 0.62 in15.7 mm
11:45 PM 61.5°F16.4°C 61.5°F16.4°C 100% 1.1 mph W1.8 kmh W 4.8 mph7.7 kmh 29.83 in1010.2 mb 0.00 in0.0 mm 0.00 in0.0 mm 0.62 in15.7 mm